Time;durP1;ratioP1;P1;durP2;ratioP2;P2;SDS_P1;SDS_P2;PMS_P1;PMS_P2;Temp;Humidity;BMP_temperature;BMP_pressure;BME280_temperature;BME280_humidity;BME280_pressure;Samples;Min_cycle;Max_cycle;Signal;HPM_P1;HPM_P2
2023/07/01 00:01:33;;;;;;;9.80;4.93;;;;;;;;;;5007969;28;20645;-58
2023/07/01 00:03:58;;;;;;;7.70;5.25;;;;;;;;;;5027660;28;20276;-58
2023/07/01 00:06:23;;;;;;;7.25;4.85;;;;;;;;;;5026733;28;20017;-58
2023/07/01 00:08:49;;;;;;;6.13;5.13;;;;;;;;;;5008362;28;20052;-56
2023/07/01 00:11:14;;;;;;;6.65;5.00;;;;;;;;;;5026226;28;20065;-58
2023/07/01 00:13:39;;;;;;;8.02;5.05;;;;;;;;;;5007397;28;20052;-57
2023/07/01 00:16:04;;;;;;;6.43;4.73;;;;;;;;;;5012281;28;20399;-57
2023/07/01 00:18:30;;;;;;;6.83;5.17;;;;;;;;;;5005402;28;20311;-58
2023/07/01 00:20:55;;;;;;;6.00;4.88;;;;;;;;;;5026161;28;20355;-59
2023/07/01 00:23:20;;;;;;;5.83;4.80;;;;;;;;;;5008077;28;20387;-58
2023/07/01 00:25:46;;;;;;;7.53;4.60;;;;;;;;;;5026432;28;20291;-57
2023/07/01 00:28:11;;;;;;;6.63;5.03;;;;;;;;;;4991925;28;20041;-57
2023/07/01 00:30:36;;;;;;;5.67;4.57;;;;;;;;;;4973943;28;20542;-60
2023/07/01 00:33:02;;;;;;;8.83;4.83;;;;;;;;;;5008029;28;20474;-57
2023/07/01 00:35:28;;;;;;;5.57;4.53;;;;;;;;;;5025103;28;20687;-57
2023/07/01 00:37:53;;;;;;;6.07;4.45;;;;;;;;;;5008244;28;20030;-58
2023/07/01 00:40:18;;;;;;;8.30;4.83;;;;;;;;;;5025172;28;20092;-57
2023/07/01 00:42:44;;;;;;;7.05;5.05;;;;;;;;;;5008149;28;20319;-58
2023/07/01 00:45:09;;;;;;;6.82;4.30;;;;;;;;;;5025960;28;20021;-58
2023/07/01 00:47:35;;;;;;;8.23;4.88;;;;;;;;;;5025109;28;20013;-57
2023/07/01 00:50:00;;;;;;;5.30;4.33;;;;;;;;;;5008243;28;20344;-60
2023/07/01 00:52:25;;;;;;;6.37;4.73;;;;;;;;;;5007056;28;20292;-56
2023/07/01 00:54:50;;;;;;;6.18;4.43;;;;;;;;;;4990372;28;20371;-57
2023/07/01 00:57:16;;;;;;;6.70;5.20;;;;;;;;;;5025056;28;20650;-57
2023/07/01 00:59:41;;;;;;;6.63;4.53;;;;;;;;;;5008135;28;20641;-59
2023/07/01 01:02:09;;;;;;;7.90;4.60;;;;;;;;;;5007766;28;20307;-59
2023/07/01 01:04:37;;;;;;;6.05;4.40;;;;;;;;;;5008045;28;20321;-57
2023/07/01 01:07:12;;;;;;;6.22;4.88;;;;;;;;;;5005810;28;20567;-57
2023/07/01 01:09:38;;;;;;;5.30;4.38;;;;;;;;;;4988882;28;20429;-57
2023/07/01 01:12:04;;;;;;;6.05;4.15;;;;;;;;;;5003327;28;20050;-57
2023/07/01 01:14:30;;;;;;;5.38;4.72;;;;;;;;;;4985378;28;20096;-58
2023/07/01 01:16:55;;;;;;;7.23;4.70;;;;;;;;;;4999161;28;20037;-59
2023/07/01 01:19:39;;;;;;;5.53;4.70;;;;;;;;;;4988272;28;20445;-59
2023/07/01 01:22:12;;;;;;;5.75;4.43;;;;;;;;;;4996853;28;20044;-58
2023/07/01 01:24:38;;;;;;;6.72;4.63;;;;;;;;;;5000924;28;20138;-59
2023/07/01 01:27:04;;;;;;;7.70;4.50;;;;;;;;;;5025815;28;20120;-57
2023/07/01 01:29:29;;;;;;;6.20;4.40;;;;;;;;;;5017335;28;20454;-57
2023/07/01 01:31:55;;;;;;;7.60;4.27;;;;;;;;;;5008001;28;20205;-58
2023/07/01 01:34:20;;;;;;;7.13;4.37;;;;;;;;;;5006298;28;20034;-57
2023/07/01 01:36:51;;;;;;;6.32;4.90;;;;;;;;;;4984741;28;20042;-58
2023/07/01 01:39:17;;;;;;;6.40;4.45;;;;;;;;;;4995065;28;20049;-58
2023/07/01 01:41:43;;;;;;;6.45;4.70;;;;;;;;;;4983367;28;20061;-60
2023/07/01 01:44:10;;;;;;;7.03;5.00;;;;;;;;;;5009778;28;20060;-57
2023/07/01 01:46:35;;;;;;;8.32;4.40;;;;;;;;;;5015150;28;20606;-58
2023/07/01 01:49:03;;;;;;;7.27;4.57;;;;;;;;;;5005564;28;20141;-58
2023/07/01 01:51:28;;;;;;;6.72;4.35;;;;;;;;;;5015490;28;20293;-58
2023/07/01 01:53:54;;;;;;;5.95;4.47;;;;;;;;;;5004163;28;20060;-56
2023/07/01 01:56:19;;;;;;;6.00;4.25;;;;;;;;;;5015659;28;20040;-59
2023/07/01 01:58:47;;;;;;;6.82;4.32;;;;;;;;;;5008046;28;20046;-57
2023/07/01 02:01:12;;;;;;;5.88;4.10;;;;;;;;;;4997398;28;20128;-59
2023/07/01 02:03:37;;;;;;;5.70;4.10;;;;;;;;;;4994863;28;20069;-57
2023/07/01 02:06:03;;;;;;;6.93;4.47;;;;;;;;;;5022255;28;20276;-57
2023/07/01 02:08:28;;;;;;;4.93;4.30;;;;;;;;;;5024991;28;20966;-57
2023/07/01 02:10:53;;;;;;;7.47;4.60;;;;;;;;;;5013978;28;20304;-58
2023/07/01 02:13:18;;;;;;;6.93;4.10;;;;;;;;;;5016233;28;20030;-58
2023/07/01 02:15:44;;;;;;;6.22;4.60;;;;;;;;;;5018528;28;20049;-60
2023/07/01 02:18:09;;;;;;;5.95;4.38;;;;;;;;;;5022925;28;20034;-58
2023/07/01 02:20:34;;;;;;;7.27;4.60;;;;;;;;;;5024617;28;20057;-58
2023/07/01 02:22:59;;;;;;;5.97;4.47;;;;;;;;;;5013606;28;20339;-58
2023/07/01 02:25:25;;;;;;;5.27;4.27;;;;;;;;;;5004849;28;20860;-58
2023/07/01 02:27:50;;;;;;;6.57;4.65;;;;;;;;;;5004584;28;20403;-58
2023/07/01 02:30:15;;;;;;;6.07;4.25;;;;;;;;;;4996486;28;20123;-58
2023/07/01 02:32:41;;;;;;;6.38;4.57;;;;;;;;;;4994358;28;20101;-59
2023/07/01 02:35:06;;;;;;;5.87;4.90;;;;;;;;;;5014069;28;20428;-58
2023/07/01 02:37:31;;;;;;;5.53;4.45;;;;;;;;;;5024316;28;21113;-58
2023/07/01 02:39:56;;;;;;;6.33;4.33;;;;;;;;;;5013163;28;20450;-58
2023/07/01 02:42:22;;;;;;;5.50;3.93;;;;;;;;;;5016252;28;20413;-59
2023/07/01 02:44:47;;;;;;;6.80;4.30;;;;;;;;;;5003136;28;20283;-59
2023/07/01 02:47:13;;;;;;;6.40;4.18;;;;;;;;;;5004931;28;20084;-59
2023/07/01 02:49:40;;;;;;;5.88;4.30;;;;;;;;;;5015807;28;20138;-58
2023/07/01 02:52:06;;;;;;;7.70;4.35;;;;;;;;;;5013508;28;20038;-58
2023/07/01 02:54:31;;;;;;;5.97;4.40;;;;;;;;;;4985887;28;20034;-59
2023/07/01 02:56:56;;;;;;;6.25;4.43;;;;;;;;;;5024169;28;20041;-58
2023/07/01 02:59:22;;;;;;;6.77;4.40;;;;;;;;;;5024659;28;20033;-59
2023/07/01 03:01:47;;;;;;;6.50;4.75;;;;;;;;;;5012545;28;20041;-59
2023/07/01 03:04:13;;;;;;;4.93;4.10;;;;;;;;;;5016130;28;20029;-58
2023/07/01 03:06:38;;;;;;;7.63;4.82;;;;;;;;;;5023902;28;20437;-57
2023/07/01 03:09:07;;;;;;;5.40;4.23;;;;;;;;;;5024692;28;20032;-59
2023/07/01 03:11:32;;;;;;;5.25;3.90;;;;;;;;;;5011769;28;20061;-58
2023/07/01 03:13:57;;;;;;;5.78;4.28;;;;;;;;;;5016851;28;20037;-57
2023/07/01 03:16:23;;;;;;;5.37;4.00;;;;;;;;;;5018898;28;20083;-58
2023/07/01 03:18:48;;;;;;;7.30;4.60;;;;;;;;;;4997467;28;20312;-61
2023/07/01 03:21:13;;;;;;;8.10;4.67;;;;;;;;;;5004109;28;20839;-57
2023/07/01 03:23:38;;;;;;;5.40;4.50;;;;;;;;;;4972371;28;20296;-57
2023/07/01 03:26:04;;;;;;;5.65;4.05;;;;;;;;;;5005892;28;20371;-59
2023/07/01 03:28:29;;;;;;;6.37;4.70;;;;;;;;;;4983849;28;20057;-59
2023/07/01 03:30:54;;;;;;;7.63;4.47;;;;;;;;;;5007359;28;20324;-58
2023/07/01 03:33:20;;;;;;;6.13;4.80;;;;;;;;;;5006288;28;20284;-58
2023/07/01 03:35:45;;;;;;;6.93;4.63;;;;;;;;;;5012894;28;20319;-57
2023/07/01 03:38:11;;;;;;;6.68;4.18;;;;;;;;;;5006341;28;20088;-59
2023/07/01 03:40:36;;;;;;;5.45;4.20;;;;;;;;;;5011869;28;20038;-58
2023/07/01 03:43:01;;;;;;;5.60;4.20;;;;;;;;;;4987420;28;20120;-58
2023/07/01 03:45:26;;;;;;;6.93;4.60;;;;;;;;;;5006666;28;20353;-57
2023/07/01 03:47:52;;;;;;;5.23;3.90;;;;;;;;;;4993857;28;20037;-60
2023/07/01 03:50:17;;;;;;;5.53;4.60;;;;;;;;;;5009450;28;20128;-57
2023/07/01 03:52:42;;;;;;;7.87;4.60;;;;;;;;;;5003094;28;20669;-57
2023/07/01 03:55:08;;;;;;;5.10;3.78;;;;;;;;;;5008918;28;20300;-59
2023/07/01 03:57:34;;;;;;;6.53;4.50;;;;;;;;;;4996363;28;20876;-58
2023/07/01 03:59:59;;;;;;;5.18;4.05;;;;;;;;;;4997405;28;20042;-57
2023/07/01 04:02:25;;;;;;;5.10;4.35;;;;;;;;;;5012938;28;20117;-57
2023/07/01 04:04:51;;;;;;;5.10;4.53;;;;;;;;;;4993724;28;20042;-57
2023/07/01 04:07:17;;;;;;;5.13;4.25;;;;;;;;;;5008237;28;20034;-59
2023/07/01 04:09:43;;;;;;;9.38;4.60;;;;;;;;;;4991194;28;20060;-57
2023/07/01 04:12:09;;;;;;;6.13;4.30;;;;;;;;;;5009379;28;20052;-57
2023/07/01 04:14:34;;;;;;;5.80;4.22;;;;;;;;;;5001992;28;20045;-57
2023/07/01 04:17:00;;;;;;;4.93;4.27;;;;;;;;;;5009572;28;20037;-57
2023/07/01 04:19:25;;;;;;;7.35;4.80;;;;;;;;;;4997505;28;20034;-57
2023/07/01 04:21:50;;;;;;;5.70;4.57;;;;;;;;;;5009177;28;20041;-59
2023/07/01 04:24:15;;;;;;;5.27;4.63;;;;;;;;;;4998822;28;20045;-58
2023/07/01 04:26:44;;;;;;;5.57;4.73;;;;;;;;;;5010635;28;20041;-58
2023/07/01 04:29:09;;;;;;;5.95;4.65;;;;;;;;;;5001058;28;20321;-58
2023/07/01 04:31:35;;;;;;;6.53;4.90;;;;;;;;;;4987755;28;20148;-59
2023/07/01 04:34:00;;;;;;;6.07;5.47;;;;;;;;;;5000905;28;20513;-59
2023/07/01 04:36:25;;;;;;;7.60;5.10;;;;;;;;;;4995334;28;20038;-58
2023/07/01 04:38:50;;;;;;;7.13;5.27;;;;;;;;;;5000722;28;20033;-58
2023/07/01 04:41:15;;;;;;;6.07;5.03;;;;;;;;;;5010292;28;20300;-57
2023/07/01 04:43:41;;;;;;;9.53;5.63;;;;;;;;;;4997350;28;20335;-57
2023/07/01 04:46:07;;;;;;;6.88;5.40;;;;;;;;;;5011009;28;20816;-57
2023/07/01 04:48:32;;;;;;;6.50;5.03;;;;;;;;;;4997614;28;20033;-58
2023/07/01 04:50:58;;;;;;;7.27;5.40;;;;;;;;;;5010008;28;20107;-58
2023/07/01 04:53:23;;;;;;;6.67;5.50;;;;;;;;;;4993190;28;20318;-57
2023/07/01 04:55:48;;;;;;;7.60;5.90;;;;;;;;;;5007323;28;20128;-60
2023/07/01 04:58:13;;;;;;;7.45;5.90;;;;;;;;;;4999485;28;20288;-57
2023/07/01 05:00:39;;;;;;;6.63;5.97;;;;;;;;;;5008974;28;20103;-59
2023/07/01 05:03:04;;;;;;;7.45;5.68;;;;;;;;;;4998647;28;20281;-60
2023/07/01 05:05:29;;;;;;;6.75;5.93;;;;;;;;;;5008631;28;20033;-58
2023/07/01 05:07:54;;;;;;;8.57;6.00;;;;;;;;;;4998141;28;20103;-56
2023/07/01 05:10:20;;;;;;;8.97;5.83;;;;;;;;;;5008649;28;20037;-58
2023/07/01 05:12:45;;;;;;;7.77;5.93;;;;;;;;;;4998926;28;20056;-58
2023/07/01 05:15:10;;;;;;;8.13;5.90;;;;;;;;;;5009534;28;20297;-56
2023/07/01 05:17:36;;;;;;;8.55;6.50;;;;;;;;;;4997373;28;20088;-57
2023/07/01 05:20:01;;;;;;;9.53;6.43;;;;;;;;;;4974653;28;20049;-59
2023/07/01 05:22:26;;;;;;;9.77;6.37;;;;;;;;;;5011806;28;20041;-59
2023/07/01 05:24:51;;;;;;;8.73;6.40;;;;;;;;;;5000182;28;20286;-60
2023/07/01 05:27:16;;;;;;;11.35;6.18;;;;;;;;;;5011319;28;21697;-59
2023/07/01 05:29:42;;;;;;;8.60;6.30;;;;;;;;;;4998855;28;20076;-58
2023/07/01 05:32:07;;;;;;;8.53;6.23;;;;;;;;;;5010526;28;20533;-59
2023/07/01 05:34:32;;;;;;;7.00;6.13;;;;;;;;;;4996675;28;20640;-59
2023/07/01 05:36:58;;;;;;;8.77;6.47;;;;;;;;;;5007454;28;20048;-60
2023/07/01 05:39:23;;;;;;;10.00;6.72;;;;;;;;;;4995055;28;20045;-57
2023/07/01 05:41:48;;;;;;;9.43;6.78;;;;;;;;;;4979442;28;20034;-56
2023/07/01 05:44:14;;;;;;;7.40;6.27;;;;;;;;;;5008664;28;20033;-59
2023/07/01 05:46:40;;;;;;;8.23;6.27;;;;;;;;;;4995725;28;20416;-57
2023/07/01 05:49:05;;;;;;;7.85;6.22;;;;;;;;;;5010164;28;20292;-58
2023/07/01 05:51:31;;;;;;;8.43;5.55;;;;;;;;;;4987454;28;20159;-57
2023/07/01 05:53:56;;;;;;;6.93;6.07;;;;;;;;;;5009433;28;20563;-57
2023/07/01 05:56:21;;;;;;;6.70;6.00;;;;;;;;;;4996848;28;20572;-59
2023/07/01 05:58:46;;;;;;;7.40;5.67;;;;;;;;;;5007411;28;20308;-59
2023/07/01 06:01:12;;;;;;;7.97;5.90;;;;;;;;;;4999001;28;20304;-57
2023/07/01 06:03:37;;;;;;;8.60;6.40;;;;;;;;;;5011198;28;20125;-58
2023/07/01 06:06:02;;;;;;;8.23;6.77;;;;;;;;;;4981959;28;20072;-58
2023/07/01 06:08:27;;;;;;;9.30;7.05;;;;;;;;;;5009133;28;20041;-59
2023/07/01 06:10:53;;;;;;;8.17;6.67;;;;;;;;;;4997591;28;20486;-58
2023/07/01 06:13:18;;;;;;;10.00;6.90;;;;;;;;;;4991324;28;20430;-58
2023/07/01 06:15:43;;;;;;;7.65;6.53;;;;;;;;;;4997451;28;20297;-59
2023/07/01 06:18:09;;;;;;;9.18;6.07;;;;;;;;;;5010480;28;20055;-57
2023/07/01 06:20:34;;;;;;;9.02;6.85;;;;;;;;;;4996374;28;20084;-57
2023/07/01 06:22:59;;;;;;;7.47;5.97;;;;;;;;;;4978528;28;20038;-57
2023/07/01 06:25:24;;;;;;;6.77;6.03;;;;;;;;;;4995731;28;20306;-58
2023/07/01 06:27:50;;;;;;;8.98;6.25;;;;;;;;;;4995504;28;20591;-57
2023/07/01 06:30:15;;;;;;;6.68;5.88;;;;;;;;;;5011608;28;20041;-56
2023/07/01 06:32:40;;;;;;;9.02;6.38;;;;;;;;;;4996400;28;20046;-59
2023/07/01 06:35:06;;;;;;;8.43;5.60;;;;;;;;;;5011218;28;20729;-57
2023/07/01 06:37:31;;;;;;;8.13;5.70;;;;;;;;;;4996913;28;20457;-57
2023/07/01 06:39:56;;;;;;;9.17;5.93;;;;;;;;;;5011605;28;20490;-58
2023/07/01 06:42:21;;;;;;;10.10;6.37;;;;;;;;;;4996838;28;20308;-57
2023/07/01 06:44:47;;;;;;;9.30;6.60;;;;;;;;;;5011685;28;20073;-57
2023/07/01 06:47:12;;;;;;;14.10;9.32;;;;;;;;;;4998707;28;20300;-57
2023/07/01 06:49:37;;;;;;;10.37;6.10;;;;;;;;;;5012396;28;20490;-58
2023/07/01 06:52:03;;;;;;;9.23;5.77;;;;;;;;;;4997729;28;20321;-59
2023/07/01 06:54:28;;;;;;;9.07;5.70;;;;;;;;;;5008276;28;20431;-58
2023/07/01 06:56:53;;;;;;;8.00;5.87;;;;;;;;;;4996050;28;20137;-58
2023/07/01 06:59:18;;;;;;;7.47;6.15;;;;;;;;;;5009953;28;20122;-58
2023/07/01 07:01:44;;;;;;;10.07;6.32;;;;;;;;;;4994857;28;20042;-57
2023/07/01 07:04:09;;;;;;;7.90;5.53;;;;;;;;;;5012278;28;20033;-58
2023/07/01 07:06:34;;;;;;;8.63;5.70;;;;;;;;;;4979689;28;20914;-58
2023/07/01 07:08:59;;;;;;;9.20;5.80;;;;;;;;;;5005724;28;20327;-59
2023/07/01 07:11:25;;;;;;;7.87;5.40;;;;;;;;;;4979925;28;20321;-59
2023/07/01 07:13:50;;;;;;;9.20;5.60;;;;;;;;;;4981098;28;20041;-58
2023/07/01 07:16:15;;;;;;;6.68;5.57;;;;;;;;;;5015078;28;20038;-58
2023/07/01 07:18:40;;;;;;;7.70;5.83;;;;;;;;;;4999917;28;20069;-58
2023/07/01 07:21:06;;;;;;;6.53;5.83;;;;;;;;;;5019355;28;20094;-59
2023/07/01 07:23:31;;;;;;;7.85;5.57;;;;;;;;;;5003516;28;20297;-58
2023/07/01 07:25:56;;;;;;;8.70;5.90;;;;;;;;;;4988909;28;20034;-59
2023/07/01 07:28:21;;;;;;;6.87;5.07;;;;;;;;;;5017081;28;20194;-60
2023/07/01 07:30:47;;;;;;;6.97;5.40;;;;;;;;;;4999506;28;20300;-57
2023/07/01 07:33:12;;;;;;;6.40;5.20;;;;;;;;;;5018496;28;20125;-57
2023/07/01 07:35:37;;;;;;;6.13;4.95;;;;;;;;;;5002046;28;20277;-60
2023/07/01 07:38:03;;;;;;;7.47;5.00;;;;;;;;;;5020553;28;20038;-56
2023/07/01 07:40:28;;;;;;;7.17;4.63;;;;;;;;;;5002169;28;20115;-58
2023/07/01 07:42:53;;;;;;;5.97;4.53;;;;;;;;;;5037055;22;20319;-56
2023/07/01 07:45:20;;;;;;;7.85;4.60;;;;;;;;;;5033993;28;20398;-56
2023/07/01 07:47:45;;;;;;;6.03;4.68;;;;;;;;;;5018360;28;20025;-57
2023/07/01 07:50:10;;;;;;;6.97;4.80;;;;;;;;;;5023074;28;20052;-57
2023/07/01 07:52:36;;;;;;;5.25;4.28;;;;;;;;;;5043028;28;20064;-57
2023/07/01 07:55:01;;;;;;;9.45;4.78;;;;;;;;;;5039484;28;20064;-58
2023/07/01 07:57:26;;;;;;;7.50;5.37;;;;;;;;;;5041148;28;20536;-57
2023/07/01 07:59:52;;;;;;;5.97;5.20;;;;;;;;;;5038439;28;20361;-58
2023/07/01 08:02:17;;;;;;;7.00;5.10;;;;;;;;;;5062991;22;20040;-56
2023/07/01 08:04:42;;;;;;;7.63;5.07;;;;;;;;;;5025253;28;20536;-56
2023/07/01 08:07:08;;;;;;;7.33;4.40;;;;;;;;;;5041971;28;20322;-55
2023/07/01 08:09:33;;;;;;;7.25;4.88;;;;;;;;;;5041076;28;20040;-56
2023/07/01 08:11:59;;;;;;;8.10;4.90;;;;;;;;;;5019076;28;21132;-56
2023/07/01 08:14:25;;;;;;;7.30;5.22;;;;;;;;;;5043475;28;20958;-57
2023/07/01 08:16:50;;;;;;;6.65;4.97;;;;;;;;;;5042066;28;20347;-56
2023/07/01 08:19:15;;;;;;;6.00;4.73;;;;;;;;;;5003766;28;20102;-56
2023/07/01 08:21:41;;;;;;;5.97;4.30;;;;;;;;;;5033957;28;20291;-56
2023/07/01 08:24:09;;;;;;;5.43;4.53;;;;;;;;;;5038232;28;20048;-56
2023/07/01 08:26:34;;;;;;;5.88;4.72;;;;;;;;;;5022871;28;20360;-56
2023/07/01 08:28:59;;;;;;;7.17;5.17;;;;;;;;;;5023489;28;20030;-57
2023/07/01 08:31:25;;;;;;;5.83;4.73;;;;;;;;;;5017745;28;20296;-57
2023/07/01 08:33:50;;;;;;;5.10;4.57;;;;;;;;;;5033351;28;20292;-57
2023/07/01 08:36:15;;;;;;;5.30;4.68;;;;;;;;;;5013105;28;20296;-57
2023/07/01 08:38:40;;;;;;;7.63;4.73;;;;;;;;;;5019519;28;20503;-57
2023/07/01 08:41:06;;;;;;;5.70;4.43;;;;;;;;;;5043966;28;20279;-58
2023/07/01 08:43:31;;;;;;;6.27;4.70;;;;;;;;;;5043831;28;20808;-58
2023/07/01 08:46:00;;;;;;;5.82;4.55;;;;;;;;;;5042940;28;20553;-57
2023/07/01 08:48:25;;;;;;;5.78;4.88;;;;;;;;;;5033001;28;20472;-57
2023/07/01 08:51:01;;;;;;;6.50;5.13;;;;;;;;;;5034111;28;20032;-58
2023/07/01 08:53:26;;;;;;;6.60;4.47;;;;;;;;;;5019626;28;20267;-57
2023/07/01 08:55:52;;;;;;;6.17;4.47;;;;;;;;;;5040494;28;20896;-58
2023/07/01 08:58:17;;;;;;;6.07;4.70;;;;;;;;;;5042029;28;20523;-57
2023/07/01 09:00:42;;;;;;;7.10;4.70;;;;;;;;;;5023546;28;20013;-57
2023/07/01 09:03:08;;;;;;;7.07;4.63;;;;;;;;;;5041372;28;20786;-58
2023/07/01 09:05:33;;;;;;;5.70;4.20;;;;;;;;;;5043414;28;20016;-57
2023/07/01 09:07:58;;;;;;;5.83;4.53;;;;;;;;;;5041299;28;20330;-57
2023/07/01 09:10:24;;;;;;;5.40;4.40;;;;;;;;;;5039368;28;20033;-57
2023/07/01 09:12:49;;;;;;;6.05;4.30;;;;;;;;;;5041156;28;20055;-57
2023/07/01 09:15:15;;;;;;;6.95;4.63;;;;;;;;;;5025247;28;20021;-57
2023/07/01 09:17:40;;;;;;;6.10;4.80;;;;;;;;;;5044744;28;20411;-57
2023/07/01 09:20:06;;;;;;;6.15;4.97;;;;;;;;;;5038980;28;20456;-57
2023/07/01 09:22:32;;;;;;;9.80;4.28;;;;;;;;;;5043076;28;20040;-57
2023/07/01 09:24:57;;;;;;;5.22;4.30;;;;;;;;;;5041537;28;20139;-57
2023/07/01 09:27:23;;;;;;;5.97;4.20;;;;;;;;;;5015199;28;20041;-57
2023/07/01 09:29:48;;;;;;;6.28;4.15;;;;;;;;;;5022885;28;20036;-57
2023/07/01 09:32:28;;;;;;;5.45;3.92;;;;;;;;;;5041407;28;20332;-56
2023/07/01 09:35:00;;;;;;;4.82;3.83;;;;;;;;;;5032274;28;20049;-57
2023/07/01 09:37:25;;;;;;;5.97;4.43;;;;;;;;;;5022048;28;20045;-57
2023/07/01 09:39:50;;;;;;;5.65;4.50;;;;;;;;;;5044535;28;20095;-56
2023/07/01 09:42:18;;;;;;;4.70;3.77;;;;;;;;;;5046205;28;20110;-57
2023/07/01 09:45:02;;;;;;;4.30;3.90;;;;;;;;;;5045893;28;20472;-56
2023/07/01 09:47:28;;;;;;;5.90;4.15;;;;;;;;;;5044548;28;20401;-56
2023/07/01 09:49:53;;;;;;;4.40;3.70;;;;;;;;;;5045284;28;20094;-56
2023/07/01 09:52:29;;;;;;;4.63;3.67;;;;;;;;;;5036512;28;20539;-57
2023/07/01 09:54:54;;;;;;;5.78;4.07;;;;;;;;;;5034935;28;20509;-57
2023/07/01 09:57:20;;;;;;;4.60;3.70;;;;;;;;;;5017861;28;20120;-57
2023/07/01 09:59:45;;;;;;;5.20;3.75;;;;;;;;;;5028170;28;20128;-57
2023/07/01 10:02:10;;;;;;;7.90;4.53;;;;;;;;;;5013350;28;20041;-57
2023/07/01 10:04:35;;;;;;;6.03;3.93;;;;;;;;;;5027373;28;20111;-56
2023/07/01 10:07:00;;;;;;;5.30;3.80;;;;;;;;;;5035829;28;20821;-56
2023/07/01 10:09:27;;;;;;;4.77;4.23;;;;;;;;;;5038167;28;20442;-56
2023/07/01 10:11:52;;;;;;;5.80;4.00;;;;;;;;;;5038625;28;20049;-56
2023/07/01 10:14:18;;;;;;;5.47;3.92;;;;;;;;;;5023798;28;20040;-57
2023/07/01 10:16:44;;;;;;;6.07;4.10;;;;;;;;;;5030429;28;20060;-55
2023/07/01 10:19:28;;;;;;;5.43;3.97;;;;;;;;;;5023409;28;20572;-56
2023/07/01 10:22:13;;;;;;;4.93;3.80;;;;;;;;;;5021663;28;20497;-56
2023/07/01 10:24:39;;;;;;;7.22;3.97;;;;;;;;;;5039769;28;20039;-56
2023/07/01 10:27:04;;;;;;;5.80;4.13;;;;;;;;;;5031486;28;20041;-57
2023/07/01 10:29:30;;;;;;;5.78;4.38;;;;;;;;;;5037534;28;20823;-56
2023/07/01 10:32:13;;;;;;;7.00;3.83;;;;;;;;;;5038004;28;20077;-55
2023/07/01 10:34:54;;;;;;;5.32;4.03;;;;;;;;;;5040015;28;20417;-56
2023/07/01 10:37:20;;;;;;;5.60;4.32;;;;;;;;;;5038548;28;20404;-56
2023/07/01 10:39:45;;;;;;;5.38;3.83;;;;;;;;;;5006559;28;20116;-56
2023/07/01 10:42:31;;;;;;;4.97;4.40;;;;;;;;;;5012449;28;20027;-56
2023/07/01 10:45:08;;;;;;;6.22;4.10;;;;;;;;;;5037149;28;20299;-56
2023/07/01 10:47:33;;;;;;;4.97;3.90;;;;;;;;;;5035885;28;20056;-57
2023/07/01 10:49:59;;;;;;;6.60;4.13;;;;;;;;;;5026790;28;20053;-56
2023/07/01 10:52:25;;;;;;;6.00;4.28;;;;;;;;;;5038898;28;20830;-56
2023/07/01 10:54:50;;;;;;;7.20;4.70;;;;;;;;;;5039326;28;20065;-56
2023/07/01 10:57:18;;;;;;;5.50;4.30;;;;;;;;;;5038080;28;20037;-58
2023/07/01 10:59:43;;;;;;;5.53;4.10;;;;;;;;;;5021119;28;20299;-58
2023/07/01 11:02:09;;;;;;;5.05;4.55;;;;;;;;;;5017293;28;20047;-56
2023/07/01 11:04:53;;;;;;;6.25;5.30;;;;;;;;;;5036530;28;20131;-57
2023/07/01 11:07:25;;;;;;;5.57;4.78;;;;;;;;;;5019068;28;20033;-56
2023/07/01 11:09:50;;;;;;;6.53;4.75;;;;;;;;;;5017862;28;20048;-57
2023/07/01 11:12:15;;;;;;;8.70;5.23;;;;;;;;;;5018297;28;20552;-57
2023/07/01 11:14:41;;;;;;;6.43;5.10;;;;;;;;;;5037087;28;20381;-55
2023/07/01 11:17:09;;;;;;;7.28;4.95;;;;;;;;;;5037549;28;20620;-57
2023/07/01 11:19:34;;;;;;;6.10;4.80;;;;;;;;;;5022026;28;20059;-56
2023/07/01 11:22:01;;;;;;;7.20;5.27;;;;;;;;;;5038489;28;20441;-56
2023/07/01 11:24:26;;;;;;;7.32;4.90;;;;;;;;;;5036125;28;20446;-56
2023/07/01 11:26:51;;;;;;;6.60;4.70;;;;;;;;;;5039817;28;20052;-56
2023/07/01 11:29:17;;;;;;;6.17;5.00;;;;;;;;;;5023277;28;20370;-57
2023/07/01 11:31:42;;;;;;;7.35;5.25;;;;;;;;;;5039855;28;20311;-57
2023/07/01 11:34:07;;;;;;;6.43;4.75;;;;;;;;;;5047073;28;20514;-57
2023/07/01 11:36:35;;;;;;;6.10;4.53;;;;;;;;;;5048635;28;20076;-57
2023/07/01 11:39:05;;;;;;;7.63;5.15;;;;;;;;;;5045919;28;20280;-57
2023/07/01 11:41:30;;;;;;;5.93;5.30;;;;;;;;;;5024839;28;20119;-56
2023/07/01 11:43:55;;;;;;;6.10;5.07;;;;;;;;;;5041458;28;20596;-56
2023/07/01 11:46:41;;;;;;;5.67;5.07;;;;;;;;;;5023257;28;20453;-56
2023/07/01 11:49:18;;;;;;;7.47;5.18;;;;;;;;;;5037847;28;20135;-55
2023/07/01 11:51:44;;;;;;;7.50;5.35;;;;;;;;;;5036460;28;20060;-56
2023/07/01 11:54:09;;;;;;;6.97;5.10;;;;;;;;;;5039458;28;20033;-56
2023/07/01 11:56:35;;;;;;;6.37;4.73;;;;;;;;;;5042213;28;20450;-55
2023/07/01 11:59:00;;;;;;;6.50;5.22;;;;;;;;;;5022371;28;20295;-56
2023/07/01 12:01:25;;;;;;;6.30;5.17;;;;;;;;;;5040686;28;20433;-56
2023/07/01 12:03:54;;;;;;;7.07;4.78;;;;;;;;;;5041093;28;21071;-56
2023/07/01 12:06:20;;;;;;;7.60;4.80;;;;;;;;;;5040842;28;20079;-55
2023/07/01 12:08:56;;;;;;;7.38;5.00;;;;;;;;;;5022820;28;20442;-56
2023/07/01 12:11:21;;;;;;;5.53;4.50;;;;;;;;;;5023214;28;20135;-55
2023/07/01 12:13:47;;;;;;;6.63;4.97;;;;;;;;;;5042022;28;20357;-56
2023/07/01 12:16:12;;;;;;;7.03;4.60;;;;;;;;;;5041889;28;20031;-55
2023/07/01 12:18:38;;;;;;;7.07;4.93;;;;;;;;;;5041034;28;20134;-55
2023/07/01 12:21:04;;;;;;;5.90;4.72;;;;;;;;;;5030860;28;20009;-56
2023/07/01 12:23:29;;;;;;;7.53;5.05;;;;;;;;;;5023142;28;20095;-56
2023/07/01 12:25:54;;;;;;;6.83;5.20;;;;;;;;;;5042205;28;20467;-57
2023/07/01 12:28:20;;;;;;;7.40;4.80;;;;;;;;;;5041185;28;20279;-57
2023/07/01 12:30:45;;;;;;;5.55;4.78;;;;;;;;;;5023892;28;20024;-59
2023/07/01 12:33:11;;;;;;;6.75;5.30;;;;;;;;;;5016963;28;20488;-56
2023/07/01 12:35:38;;;;;;;5.77;4.70;;;;;;;;;;5030722;28;20037;-56
2023/07/01 12:38:03;;;;;;;5.78;4.47;;;;;;;;;;5031953;28;20287;-56
2023/07/01 12:40:29;;;;;;;6.10;4.80;;;;;;;;;;5039558;28;20032;-56
2023/07/01 12:42:54;;;;;;;5.75;4.43;;;;;;;;;;5039755;28;20500;-56
2023/07/01 12:45:19;;;;;;;6.20;4.90;;;;;;;;;;5042593;28;20108;-56
2023/07/01 12:47:45;;;;;;;6.05;5.00;;;;;;;;;;5041165;28;20287;-56
2023/07/01 12:50:10;;;;;;;7.13;5.33;;;;;;;;;;5023400;28;20409;-55
2023/07/01 12:52:35;;;;;;;6.03;4.75;;;;;;;;;;5042252;28;20497;-56
2023/07/01 12:55:01;;;;;;;4.93;4.43;;;;;;;;;;5008653;28;20111;-57
2023/07/01 12:57:26;;;;;;;6.25;4.80;;;;;;;;;;5024505;28;20025;-57
2023/07/01 12:59:54;;;;;;;6.70;4.70;;;;;;;;;;5039266;28;20469;-57
2023/07/01 13:02:22;;;;;;;7.35;5.18;;;;;;;;;;5039557;28;20040;-56
2023/07/01 13:05:14;;;;;;;6.47;5.18;;;;;;;;;;5039009;28;20028;-56
2023/07/01 13:07:39;;;;;;;5.47;4.80;;;;;;;;;;5036390;28;20439;-57
2023/07/01 13:10:05;;;;;;;6.33;4.70;;;;;;;;;;5039223;28;20033;-57
2023/07/01 13:12:30;;;;;;;6.13;4.97;;;;;;;;;;5040166;28;20048;-57
2023/07/01 13:14:56;;;;;;;6.63;5.00;;;;;;;;;;5030495;28;20041;-56
2023/07/01 13:17:28;;;;;;;5.35;4.57;;;;;;;;;;5034539;28;20298;-56
2023/07/01 13:19:53;;;;;;;5.88;4.85;;;;;;;;;;5021519;28;20520;-57
2023/07/01 13:22:19;;;;;;;7.50;5.30;;;;;;;;;;5028056;28;20064;-57
2023/07/01 13:24:44;;;;;;;7.13;5.03;;;;;;;;;;5021640;28;20045;-56
2023/07/01 13:27:10;;;;;;;5.70;4.95;;;;;;;;;;5015408;28;20123;-56
2023/07/01 13:29:35;;;;;;;6.55;4.95;;;;;;;;;;5020094;28;20064;-56
2023/07/01 13:32:02;;;;;;;5.93;4.78;;;;;;;;;;5035462;28;20557;-57
2023/07/01 13:34:27;;;;;;;8.35;5.00;;;;;;;;;;5037508;28;20044;-57
2023/07/01 13:36:53;;;;;;;6.37;5.00;;;;;;;;;;5038361;28;20421;-57
2023/07/01 13:39:41;;;;;;;6.95;5.22;;;;;;;;;;5038411;28;20292;-57
2023/07/01 13:42:06;;;;;;;6.60;5.20;;;;;;;;;;5038149;28;20048;-56
2023/07/01 13:44:32;;;;;;;6.00;5.30;;;;;;;;;;5027183;28;20402;-56
2023/07/01 13:46:57;;;;;;;6.65;5.07;;;;;;;;;;5021450;28;20044;-57
2023/07/01 13:49:23;;;;;;;5.55;4.75;;;;;;;;;;5036910;28;20037;-57
2023/07/01 13:51:48;;;;;;;7.63;4.97;;;;;;;;;;5020444;28;20106;-57
2023/07/01 13:54:16;;;;;;;5.85;4.40;;;;;;;;;;5038141;28;20481;-56
2023/07/01 13:56:41;;;;;;;6.32;4.90;;;;;;;;;;5021205;28;20132;-56
2023/07/01 13:59:06;;;;;;;5.37;4.80;;;;;;;;;;5029322;28;20534;-57
2023/07/01 14:01:31;;;;;;;6.57;5.15;;;;;;;;;;5035263;28;20124;-57
2023/07/01 14:03:59;;;;;;;6.65;5.35;;;;;;;;;;5035667;28;20421;-57
2023/07/01 14:06:25;;;;;;;6.25;4.53;;;;;;;;;;5036441;28;20395;-57
2023/07/01 14:08:50;;;;;;;6.90;4.83;;;;;;;;;;5038335;28;20086;-57
2023/07/01 14:11:17;;;;;;;6.23;4.90;;;;;;;;;;5034071;28;20744;-57
2023/07/01 14:13:43;;;;;;;5.65;4.85;;;;;;;;;;5026523;28;20290;-57
2023/07/01 14:16:09;;;;;;;5.95;4.80;;;;;;;;;;5017826;28;20033;-57
2023/07/01 14:18:35;;;;;;;5.40;4.72;;;;;;;;;;5035099;28;20049;-56
2023/07/01 14:21:02;;;;;;;6.13;4.93;;;;;;;;;;5035233;28;20128;-57
2023/07/01 14:23:27;;;;;;;7.65;4.75;;;;;;;;;;5036437;28;20147;-57
2023/07/01 14:25:53;;;;;;;6.53;4.63;;;;;;;;;;5037657;28;20513;-57
2023/07/01 14:28:18;;;;;;;5.78;4.47;;;;;;;;;;5019651;28;20983;-56
2023/07/01 14:31:08;;;;;;;6.78;4.88;;;;;;;;;;5027806;28;20431;-57
2023/07/01 14:33:37;;;;;;;6.35;5.22;;;;;;;;;;5032042;28;20043;-57
2023/07/01 14:36:14;;;;;;;4.90;4.22;;;;;;;;;;5026718;28;20036;-56
2023/07/01 14:38:42;;;;;;;5.20;4.40;;;;;;;;;;5038827;28;20064;-57